Palms, MI

3:17 AM EDT on August 28, 2014 (GMT -0400)
Big Sky Farm | Change Station
CLOSE
Current Station
Personal Weather Station
Location: Carsonville, MI
Elevation: 764 ft
Nearby Weather Stations

Elev 764 ft 43.46 °N, 82.62 °W | Updated 2 seconds ago

Clear
Clear
55.4 °F
Feels Like 55.4 °F
N
0.0
Wind Variable Wind from WNW
Gusts 2.0 mph

Today
High -- | Low -- °F
--% Chance of Precip.
Yesterday
High -- | Low -- °F
Precip. -- in
6:50 AM 8:13 PM
Waxing Crescent, 7% visible
Pressure 30.15 in
Visibility 10.0 miles
Clouds Clear
Dew Point 52 °F
Humidity 90%
Rainfall 0.00 in
Snow Depth Not available.
UV 0.0 out of 12
Pollen 9.70 out of 12
PM2.5 Good
Flu Activity Not available.
METAR KBAX 280655Z AUTO 00000KT 10SM CLR 10/10 A3015 RMK AO2 T01010101

More Conditions Fewer Conditions

Pressure 30.15 in
Visibility 10.0 miles
Clouds Clear
Dew Point 52 °F
Humidity 90%
Rainfall 0.00 in
Snow Depth Not available.
UV 0.0 out of 12
Pollen 9.70 out of 12
PM2.5 Good
Flu Activity Not available.
METAR KBAX 280655Z AUTO 00000KT 10SM CLR 10/10 A3015 RMK AO2 T01010101

More Conditions Fewer Conditions

10-Day Weather Forecast

Almanac

Astronomy

Aug. 28, 2014 Rise Set
Actual Time 6:50 AM EDT 8:13 PM EDT
Civil Twilight 6:20 AM EDT 8:42 PM EDT
Nautical Twilight 5:44 AM EDT 9:18 PM EDT
Astronomical Twilight 5:05 AM EDT 9:56 PM EDT
Moon 9:48 AM EDT 9:29 PM EDT
Length of Visible Light 14h 22m
Length of Day
13h 23m
Tomorrow will be 2m 51s shorter.
Waxing Crescent, 7% of the Moon is Illuminated
Today
Waxing Crescent
Sep 2
First Quarter
Sep 8
Full
Sep 15
Last Quarter
Sep 24
New

Today's Extremes

State Highs State Lows

Community

WunderPhotos

Upload Photos

1,747,912 photos uploaded!

Nearby

Air Quality

  Air Quality AQ Index Pollutant
Yesterday Good
OZONE
Yesterday Good
PM2.5
Current Good
PM2.5
Thursday Good
OZONE
Thursday Good
PM2.5
Friday Good
OZONE
Friday Good
PM2.5

Snow Depth

Station Depth Elevation
No new snow has been reported.

Earthquake Activity

City Distance Mag. Time & Date
No recent earthquake activity has been reported nearby.
Minimum magnitude displayed is 2.5.

Coastal Water Temperatures

Place Temperature
Harbor Beach, MI 68.0 °F

Nearby Weather Stations